Time;durP1;ratioP1;P1;durP2;ratioP2;P2;SDS_P1;SDS_P2;PMS_P1;PMS_P2;Temp;Humidity;BMP_temperature;BMP_pressure;BME280_temperature;BME280_humidity;BME280_pressure;Samples;Min_cycle;Max_cycle;Signal;HPM_P1;HPM_P2
2021/07/15 00:02:21;;;;;;;27.65;14.18;;;;;;;;;;5051289;28;37122;-78
2021/07/15 00:04:47;;;;;;;32.97;15.38;;;;;;;;;;5041907;28;38931;-78
2021/07/15 00:07:18;;;;;;;34.03;15.18;;;;;;;;;;5031556;28;37826;-79
2021/07/15 00:09:44;;;;;;;27.42;15.13;;;;;;;;;;5053803;28;38592;-77
2021/07/15 00:12:16;;;;;;;36.22;14.93;;;;;;;;;;5036167;28;39324;-77
2021/07/15 00:14:43;;;;;;;33.50;15.00;;;;;;;;;;5039799;28;39201;-77
2021/07/15 00:17:10;;;;;;;36.40;15.13;;;;;;;;;;5041955;28;39259;-78
2021/07/15 00:19:36;;;;;;;29.73;16.10;;;;;;;;;;5060298;28;36964;-78
2021/07/15 00:22:10;;;;;;;39.92;16.70;;;;;;;;;;5034888;28;39329;-77
2021/07/15 00:24:38;;;;;;;34.28;16.10;;;;;;;;;;5036301;28;38807;-77
2021/07/15 00:27:05;;;;;;;29.90;15.68;;;;;;;;;;5037846;28;38979;-78
2021/07/15 00:29:31;;;;;;;28.08;16.02;;;;;;;;;;5035842;28;36290;-76
2021/07/15 00:31:59;;;;;;;40.97;17.73;;;;;;;;;;5042325;28;38100;-78
2021/07/15 00:34:26;;;;;;;35.63;16.75;;;;;;;;;;5030630;28;38734;-77
2021/07/15 00:36:53;;;;;;;31.95;17.38;;;;;;;;;;5031708;28;40071;-78
2021/07/15 00:39:19;;;;;;;33.20;17.45;;;;;;;;;;5029613;28;34450;-78
2021/07/15 00:41:46;;;;;;;37.08;17.30;;;;;;;;;;5029287;28;40180;-78
2021/07/15 00:44:15;;;;;;;33.42;17.10;;;;;;;;;;5035343;28;39256;-77
2021/07/15 00:46:42;;;;;;;36.53;17.33;;;;;;;;;;5036678;28;38647;-79
2021/07/15 00:49:08;;;;;;;39.47;18.52;;;;;;;;;;5056511;28;37325;-79
2021/07/15 00:51:35;;;;;;;37.45;18.15;;;;;;;;;;5042440;28;41468;-78
2021/07/15 00:54:01;;;;;;;33.15;16.30;;;;;;;;;;5033797;28;39196;-78
2021/07/15 00:56:31;;;;;;;36.67;18.00;;;;;;;;;;5036696;28;47068;-78
2021/07/15 00:58:58;;;;;;;34.40;18.17;;;;;;;;;;5047674;28;36194;-78
2021/07/15 01:01:25;;;;;;;31.60;16.13;;;;;;;;;;5042435;28;42402;-78
2021/07/15 01:03:51;;;;;;;30.85;16.55;;;;;;;;;;5034872;28;38506;-78
2021/07/15 01:06:18;;;;;;;37.72;18.92;;;;;;;;;;5024348;28;39698;-78
2021/07/15 01:08:48;;;;;;;35.80;19.15;;;;;;;;;;5038342;28;37206;-78
2021/07/15 01:11:14;;;;;;;37.85;17.98;;;;;;;;;;5050279;28;39109;-77
2021/07/15 01:14:14;;;;;;;29.92;17.55;;;;;;;;;;5041870;28;37996;-79
2021/07/15 01:16:48;;;;;;;35.92;18.55;;;;;;;;;;5008631;28;49273;-78
2021/07/15 01:19:35;;;;;;;36.50;18.25;;;;;;;;;;5032769;28;37466;-78
2021/07/15 01:22:08;;;;;;;33.00;18.05;;;;;;;;;;5058171;28;40912;-78
2021/07/15 01:24:53;;;;;;;34.03;19.33;;;;;;;;;;5049455;28;47303;-79
2021/07/15 01:27:28;;;;;;;39.40;18.42;;;;;;;;;;5038185;28;38705;-78
2021/07/15 01:30:11;;;;;;;35.78;18.38;;;;;;;;;;5037615;28;38611;-78
2021/07/15 01:32:37;;;;;;;;;;;;;;;;;;5054533;28;48476;-79
2021/07/15 01:35:08;;;;;;;39.17;19.45;;;;;;;;;;5030641;28;39007;-78
2021/07/15 01:37:35;;;;;;;37.47;17.60;;;;;;;;;;5032736;28;48106;-79
2021/07/15 01:40:03;;;;;;;36.50;20.48;;;;;;;;;;5041871;28;37487;-78
2021/07/15 01:42:30;;;;;;;30.90;18.40;;;;;;;;;;5019967;28;37572;-79
2021/07/15 01:45:06;;;;;;;35.08;18.65;;;;;;;;;;5040259;28;39368;-78
2021/07/15 01:47:33;;;;;;;35.53;19.75;;;;;;;;;;5031285;28;50084;-78
2021/07/15 01:49:59;;;;;;;39.08;20.40;;;;;;;;;;5040742;28;37525;-79
2021/07/15 01:52:26;;;;;;;30.63;18.67;;;;;;;;;;5020942;28;39836;-78
2021/07/15 01:54:53;;;;;;;32.55;18.25;;;;;;;;;;5050021;28;38426;-79
2021/07/15 01:57:20;;;;;;;35.50;19.13;;;;;;;;;;5022957;28;40093;-78
2021/07/15 01:59:48;;;;;;;41.63;20.02;;;;;;;;;;5035268;28;37142;-78
2021/07/15 02:02:15;;;;;;;35.83;18.88;;;;;;;;;;5039284;28;37884;-79
2021/07/15 02:04:42;;;;;;;33.35;18.10;;;;;;;;;;5037324;28;39682;-78
2021/07/15 02:07:09;;;;;;;39.28;18.13;;;;;;;;;;5037185;28;39874;-78
2021/07/15 02:09:42;;;;;;;34.45;17.50;;;;;;;;;;5035187;28;38223;-78
2021/07/15 02:12:08;;;;;;;32.45;17.17;;;;;;;;;;5030140;28;39994;-77
2021/07/15 02:14:35;;;;;;;31.45;17.50;;;;;;;;;;5034991;28;38626;-77
2021/07/15 02:17:02;;;;;;;31.95;18.38;;;;;;;;;;5036582;28;38342;-78
2021/07/15 02:19:29;;;;;;;32.65;19.02;;;;;;;;;;5044652;28;37022;-78
2021/07/15 02:21:56;;;;;;;42.92;20.15;;;;;;;;;;5030021;28;41607;-78
2021/07/15 02:24:24;;;;;;;31.77;16.88;;;;;;;;;;5026247;28;38966;-78
2021/07/15 02:26:52;;;;;;;33.25;17.17;;;;;;;;;;5029494;28;40294;-78
2021/07/15 02:29:19;;;;;;;35.17;17.08;;;;;;;;;;5036283;28;40077;-78
2021/07/15 02:31:54;;;;;;;31.80;16.25;;;;;;;;;;5026833;28;37582;-76
2021/07/15 02:34:22;;;;;;;31.60;17.30;;;;;;;;;;5029668;28;39246;-77
2021/07/15 02:36:49;;;;;;;32.78;18.77;;;;;;;;;;5036930;28;39376;-77
2021/07/15 02:39:16;;;;;;;30.98;18.00;;;;;;;;;;5035256;28;35829;-77
2021/07/15 02:41:42;;;;;;;32.35;16.67;;;;;;;;;;5036689;28;38849;-78
2021/07/15 02:44:12;;;;;;;33.28;16.90;;;;;;;;;;5022377;28;41846;-78
2021/07/15 02:46:38;;;;;;;34.50;17.60;;;;;;;;;;5022225;28;38517;-77
2021/07/15 02:49:05;;;;;;;40.58;19.45;;;;;;;;;;5032440;28;37378;-77
2021/07/15 02:51:31;;;;;;;33.78;17.95;;;;;;;;;;5042652;28;40110;-78
2021/07/15 02:53:59;;;;;;;35.83;17.48;;;;;;;;;;5026081;28;40454;-77
2021/07/15 02:56:56;;;;;;;29.77;17.30;;;;;;;;;;5025278;28;39990;-77
2021/07/15 02:59:31;;;;;;;39.88;19.02;;;;;;;;;;5040127;28;35869;-78
2021/07/15 03:02:04;;;;;;;32.92;17.00;;;;;;;;;;5021490;28;38411;-77
2021/07/15 03:04:33;;;;;;;35.58;17.75;;;;;;;;;;5022506;28;46596;-77
2021/07/15 03:07:03;;;;;;;39.25;20.25;;;;;;;;;;5017956;28;39047;-77
2021/07/15 03:09:31;;;;;;;34.83;18.27;;;;;;;;;;5038862;28;47042;-78
2021/07/15 03:12:06;;;;;;;40.15;20.27;;;;;;;;;;5040248;28;39474;-78
2021/07/15 03:14:35;;;;;;;36.63;19.30;;;;;;;;;;5024387;28;49012;-78
2021/07/15 03:17:02;;;;;;;32.22;18.42;;;;;;;;;;5024356;28;39597;-78
2021/07/15 03:19:30;;;;;;;41.33;20.48;;;;;;;;;;5035914;28;47399;-78
2021/07/15 03:21:58;;;;;;;32.45;18.92;;;;;;;;;;5022426;28;38645;-78
2021/07/15 03:24:26;;;;;;;34.88;19.42;;;;;;;;;;5021192;28;39250;-78
2021/07/15 03:26:54;;;;;;;33.78;18.38;;;;;;;;;;5019681;28;37721;-78
2021/07/15 03:29:20;;;;;;;39.22;20.48;;;;;;;;;;5034047;28;37353;-78
2021/07/15 03:31:47;;;;;;;44.08;20.95;;;;;;;;;;5047974;28;40865;-78
2021/07/15 03:34:13;;;;;;;35.20;19.30;;;;;;;;;;5049152;28;42345;-77
2021/07/15 03:36:47;;;;;;;42.65;19.10;;;;;;;;;;5038180;28;39912;-78
2021/07/15 03:39:13;;;;;;;;;;;;;;;;;;5023179;28;37785;-77
2021/07/15 03:41:39;;;;;;;34.10;16.63;;;;;;;;;;5025325;28;39925;-77
2021/07/15 03:44:06;;;;;;;41.10;19.90;;;;;;;;;;5022942;28;44241;-77
2021/07/15 03:46:33;;;;;;;38.10;17.80;;;;;;;;;;5029928;28;39788;-77
2021/07/15 03:48:59;;;;;;;46.65;19.65;;;;;;;;;;5021337;28;39835;-78
2021/07/15 03:51:26;;;;;;;33.55;19.45;;;;;;;;;;5029093;28;38560;-77
2021/07/15 03:53:53;;;;;;;42.88;20.15;;;;;;;;;;5044371;28;37659;-78
2021/07/15 03:56:20;;;;;;;41.22;18.48;;;;;;;;;;5026669;28;42044;-78
2021/07/15 03:58:48;;;;;;;36.20;16.42;;;;;;;;;;5034506;28;35608;-78
2021/07/15 04:01:15;;;;;;;38.25;18.20;;;;;;;;;;5026515;28;39088;-78
2021/07/15 04:03:43;;;;;;;36.33;18.35;;;;;;;;;;5036013;28;38148;-78
2021/07/15 04:06:11;;;;;;;30.33;16.35;;;;;;;;;;5029942;28;36150;-79
2021/07/15 04:08:38;;;;;;;27.92;15.13;;;;;;;;;;5057520;28;35900;-79
2021/07/15 04:11:06;;;;;;;35.63;16.13;;;;;;;;;;5029407;28;39448;-78
2021/07/15 04:13:34;;;;;;;30.05;15.05;;;;;;;;;;5020100;28;37559;-78
2021/07/15 04:16:10;;;;;;;28.50;15.00;;;;;;;;;;5024533;28;36714;-78
2021/07/15 04:18:39;;;;;;;32.40;14.88;;;;;;;;;;5037560;28;48027;-79
2021/07/15 04:21:07;;;;;;;31.98;14.52;;;;;;;;;;5045090;28;40973;-79
2021/07/15 04:23:35;;;;;;;26.20;13.23;;;;;;;;;;5026147;28;39422;-80
2021/07/15 04:26:01;;;;;;;29.02;13.70;;;;;;;;;;5025197;28;40824;-79
2021/07/15 04:28:28;;;;;;;29.80;13.88;;;;;;;;;;5022109;28;48634;-79
2021/07/15 04:30:55;;;;;;;29.05;13.77;;;;;;;;;;5033391;28;37506;-79
2021/07/15 04:33:23;;;;;;;31.25;14.35;;;;;;;;;;5041728;28;37163;-77
2021/07/15 04:35:50;;;;;;;38.22;15.07;;;;;;;;;;5039770;28;38794;-78
2021/07/15 04:38:17;;;;;;;36.00;14.27;;;;;;;;;;5022217;28;35477;-78
2021/07/15 04:40:43;;;;;;;33.88;15.10;;;;;;;;;;5062406;28;37563;-78
2021/07/15 04:43:10;;;;;;;34.63;15.10;;;;;;;;;;5062343;28;40951;-80
2021/07/15 04:45:48;;;;;;;34.10;15.43;;;;;;;;;;5046208;28;42100;-79
2021/07/15 04:48:16;;;;;;;26.88;14.50;;;;;;;;;;5062780;28;38037;-79
2021/07/15 04:50:51;;;;;;;33.83;15.40;;;;;;;;;;5041343;28;38688;-79
2021/07/15 04:53:20;;;;;;;39.78;16.17;;;;;;;;;;5053400;28;39466;-78
2021/07/15 04:56:04;;;;;;;47.17;17.10;;;;;;;;;;5043766;28;39393;-79
2021/07/15 04:58:41;;;;;;;38.40;15.88;;;;;;;;;;5059850;28;37397;-79
2021/07/15 05:01:07;;;;;;;33.83;16.73;;;;;;;;;;5027434;28;38893;-79
2021/07/15 05:03:44;;;;;;;39.35;16.42;;;;;;;;;;5053842;28;39356;-78
2021/07/15 05:06:10;;;;;;;37.22;16.85;;;;;;;;;;5084063;22;37508;-78
2021/07/15 05:09:12;;;;;;;36.42;15.43;;;;;;;;;;5041935;28;37215;-79
2021/07/15 05:11:38;;;;;;;35.17;15.45;;;;;;;;;;5047208;28;47464;-78
2021/07/15 05:14:05;;;;;;;38.17;16.20;;;;;;;;;;5029102;28;38275;-78
2021/07/15 05:16:33;;;;;;;35.13;15.00;;;;;;;;;;5035194;28;38600;-79
2021/07/15 05:18:59;;;;;;;35.17;16.42;;;;;;;;;;5040823;28;37423;-79
2021/07/15 05:21:26;;;;;;;33.70;14.07;;;;;;;;;;5025034;28;38280;-80
2021/07/15 05:23:52;;;;;;;28.95;13.63;;;;;;;;;;5047659;28;40069;-79
2021/07/15 05:26:19;;;;;;;26.38;12.15;;;;;;;;;;5028574;28;36950;-79
2021/07/15 05:28:46;;;;;;;36.50;13.40;;;;;;;;;;5032870;28;37166;-79
2021/07/15 05:31:13;;;;;;;32.15;13.20;;;;;;;;;;5035089;28;38819;-78
2021/07/15 05:33:39;;;;;;;29.27;12.38;;;;;;;;;;5050863;28;38834;-79
2021/07/15 05:36:06;;;;;;;31.17;11.75;;;;;;;;;;5028069;28;37142;-78
2021/07/15 05:38:33;;;;;;;27.48;12.27;;;;;;;;;;5050179;28;37048;-80
2021/07/15 05:41:00;;;;;;;32.88;12.55;;;;;;;;;;5037961;28;39364;-79
2021/07/15 05:43:29;;;;;;;23.13;11.10;;;;;;;;;;5029720;28;46471;-79
2021/07/15 05:45:57;;;;;;;38.55;13.65;;;;;;;;;;5035529;28;40790;-78
2021/07/15 05:48:23;;;;;;;28.58;11.00;;;;;;;;;;5047322;28;37454;-77
2021/07/15 05:50:53;;;;;;;30.67;10.60;;;;;;;;;;5039059;28;38330;-77
2021/07/15 05:53:19;;;;;;;24.15;11.05;;;;;;;;;;5031903;28;39068;-77
2021/07/15 05:55:46;;;;;;;21.38;10.43;;;;;;;;;;5032858;28;39188;-77
2021/07/15 05:58:12;;;;;;;24.85;11.07;;;;;;;;;;5038600;28;38975;-77
2021/07/15 06:00:43;;;;;;;25.40;10.93;;;;;;;;;;5028575;28;40313;-80
2021/07/15 06:06:13;;;;;;;25.10;11.00;;;;;;;;;;5045540;28;40268;-79
2021/07/15 06:08:43;;;;;;;30.83;12.57;;;;;;;;;;5034616;28;40060;-78
2021/07/15 06:11:09;;;;;;;27.52;11.45;;;;;;;;;;5044045;28;39042;-78
2021/07/15 06:13:37;;;;;;;19.83;10.63;;;;;;;;;;5041165;28;39063;-78
2021/07/15 06:16:03;;;;;;;25.15;11.25;;;;;;;;;;5059522;28;37468;-78
2021/07/15 06:18:30;;;;;;;31.00;12.13;;;;;;;;;;5029178;28;36413;-78
2021/07/15 06:21:01;;;;;;;30.75;12.50;;;;;;;;;;5035213;28;38121;-77
2021/07/15 06:23:32;;;;;;;23.42;12.00;;;;;;;;;;5032424;28;40390;-78
2021/07/15 06:25:59;;;;;;;29.55;11.38;;;;;;;;;;5038515;28;40080;-78
2021/07/15 06:28:26;;;;;;;31.55;11.75;;;;;;;;;;5035351;28;36344;-78
2021/07/15 06:30:52;;;;;;;24.17;10.98;;;;;;;;;;5030188;28;38254;-77
2021/07/15 06:33:19;;;;;;;21.52;10.85;;;;;;;;;;5028004;28;38078;-78
2021/07/15 06:35:50;;;;;;;31.77;11.10;;;;;;;;;;5057007;28;36903;-79
2021/07/15 06:38:17;;;;;;;24.98;10.77;;;;;;;;;;5041614;28;37443;-78
2021/07/15 06:40:54;;;;;;;25.80;10.15;;;;;;;;;;5046568;28;40204;-79
2021/07/15 06:43:21;;;;;;;27.13;9.98;;;;;;;;;;5055453;28;39181;-78
2021/07/15 06:45:48;;;;;;;29.77;10.90;;;;;;;;;;5062007;28;39478;-80
2021/07/15 07:38:38;;;;;;;15.85;8.20;;;;;;;;;;6014166;22;20045;-78
2021/07/15 08:07:34;;;;;;;15.57;7.30;;;;;;;;;;5690896;22;20054;-81
2021/07/15 08:41:21;;;;;;;15.20;6.63;;;;;;;;;;6206937;22;20509;-79
2021/07/15 08:43:59;;;;;;;20.75;6.28;;;;;;;;;;5068646;28;38098;-81
2021/07/15 09:44:01;;;;;;;20.15;7.90;;;;;;;;;;6040929;22;20776;-79
2021/07/15 09:46:28;;;;;;;16.98;7.57;;;;;;;;;;5059883;28;49998;-80
2021/07/15 09:49:03;;;;;;;17.63;7.75;;;;;;;;;;5070815;28;38578;-79
2021/07/15 09:51:37;;;;;;;16.10;7.05;;;;;;;;;;5062116;28;47275;-80
2021/07/15 09:54:04;;;;;;;13.77;6.88;;;;;;;;;;5076926;28;39280;-79
2021/07/15 09:56:40;;;;;;;13.05;6.80;;;;;;;;;;5077052;27;36741;-80
2021/07/15 09:59:06;;;;;;;15.98;6.57;;;;;;;;;;5067525;28;39227;-80
2021/07/15 10:01:32;;;;;;;15.13;7.22;;;;;;;;;;5070955;28;38541;-80
2021/07/15 10:04:03;;;;;;;14.07;6.57;;;;;;;;;;5085911;28;38601;-81
2021/07/15 10:06:42;;;;;;;11.80;6.70;;;;;;;;;;5073243;28;46821;-79
2021/07/15 10:09:18;;;;;;;19.65;6.95;;;;;;;;;;5071920;28;39104;-80
2021/07/15 10:11:45;;;;;;;14.60;6.28;;;;;;;;;;5079985;27;39586;-80
2021/07/15 10:14:13;;;;;;;16.67;6.85;;;;;;;;;;5076045;28;37411;-79
2021/07/15 10:16:39;;;;;;;15.70;6.88;;;;;;;;;;5075168;28;36260;-80
2021/07/15 10:19:07;;;;;;;12.90;6.85;;;;;;;;;;5079725;28;39143;-79
2021/07/15 10:21:34;;;;;;;16.10;7.00;;;;;;;;;;5060276;28;37766;-80
2021/07/15 10:24:14;;;;;;;14.45;7.03;;;;;;;;;;5059376;28;41873;-79
2021/07/15 10:26:48;;;;;;;17.70;8.10;;;;;;;;;;5062524;28;48683;-80
2021/07/15 10:29:15;;;;;;;15.32;6.68;;;;;;;;;;5064453;28;40100;-80
2021/07/15 10:31:44;;;;;;;14.45;7.10;;;;;;;;;;5067485;28;39554;-80
2021/07/15 10:34:11;;;;;;;19.45;7.70;;;;;;;;;;5062507;28;37905;-81
2021/07/15 10:36:38;;;;;;;12.98;7.63;;;;;;;;;;5060910;28;37952;-79
2021/07/15 10:39:10;;;;;;;14.30;7.28;;;;;;;;;;5066302;28;39585;-80
2021/07/15 10:41:37;;;;;;;20.10;8.23;;;;;;;;;;5067254;28;37579;-80
2021/07/15 10:44:05;;;;;;;13.50;7.18;;;;;;;;;;5065582;28;38310;-80
2021/07/15 10:46:31;;;;;;;16.33;7.38;;;;;;;;;;5066245;28;36779;-79
2021/07/15 10:48:58;;;;;;;12.98;6.65;;;;;;;;;;5064502;28;39486;-80
2021/07/15 10:51:24;;;;;;;14.98;7.22;;;;;;;;;;5069127;28;39164;-79
2021/07/15 10:53:51;;;;;;;13.00;7.07;;;;;;;;;;5054703;28;39611;-79
2021/07/15 10:56:19;;;;;;;17.00;8.05;;;;;;;;;;5057837;28;37395;-80
2021/07/15 10:58:46;;;;;;;15.93;7.55;;;;;;;;;;5059936;28;36998;-79
2021/07/15 11:01:42;;;;;;;17.38;7.53;;;;;;;;;;5060043;28;38026;-79
2021/07/15 11:04:13;;;;;;;13.57;7.22;;;;;;;;;;5065768;28;37369;-79
2021/07/15 11:07:01;;;;;;;11.00;7.10;;;;;;;;;;5058354;28;37339;-79
2021/07/15 11:09:29;;;;;;;18.15;7.82;;;;;;;;;;5065740;28;47326;-80
2021/07/15 11:11:56;;;;;;;18.05;7.45;;;;;;;;;;5062265;28;39875;-80
2021/07/15 11:14:47;;;;;;;14.40;7.90;;;;;;;;;;5065761;28;38412;-79
2021/07/15 11:17:27;;;;;;;16.13;6.97;;;;;;;;;;5062171;28;37807;-79
2021/07/15 11:19:57;;;;;;;13.35;7.30;;;;;;;;;;5058544;28;39874;-80
2021/07/15 11:22:34;;;;;;;12.18;7.32;;;;;;;;;;5063456;28;38986;-79
2021/07/15 11:25:05;;;;;;;14.23;7.82;;;;;;;;;;5071052;28;39583;-80
2021/07/15 11:27:35;;;;;;;17.48;6.70;;;;;;;;;;5060731;28;20045;-80
2021/07/15 11:30:01;;;;;;;14.88;6.88;;;;;;;;;;5063760;28;38657;-80
2021/07/15 11:32:28;;;;;;;15.27;7.85;;;;;;;;;;5059449;28;37601;-79
2021/07/15 11:34:55;;;;;;;13.05;6.38;;;;;;;;;;5057650;28;39269;-80
2021/07/15 11:37:35;;;;;;;12.77;6.28;;;;;;;;;;5062511;28;36947;-80
2021/07/15 11:40:07;;;;;;;12.50;6.57;;;;;;;;;;5062101;28;39252;-80
2021/07/15 11:42:35;;;;;;;14.18;6.43;;;;;;;;;;5064199;28;47297;-79
2021/07/15 11:45:02;;;;;;;12.73;6.32;;;;;;;;;;5063502;28;37719;-78
2021/07/15 11:47:54;;;;;;;11.20;6.07;;;;;;;;;;5061306;28;36704;-78
2021/07/15 11:50:50;;;;;;;13.85;5.90;;;;;;;;;;5063326;28;40188;-79
2021/07/15 11:53:17;;;;;;;10.95;5.82;;;;;;;;;;5049566;28;37764;-78
2021/07/15 11:55:44;;;;;;;14.57;6.07;;;;;;;;;;5062314;28;37648;-78
2021/07/15 11:58:29;;;;;;;11.80;6.07;;;;;;;;;;5059525;28;38703;-80
2021/07/15 12:01:15;;;;;;;15.52;6.85;;;;;;;;;;5064939;28;38839;-78
2021/07/15 12:04:00;;;;;;;13.05;5.28;;;;;;;;;;5060155;28;47808;-79
2021/07/15 12:06:27;;;;;;;10.88;6.28;;;;;;;;;;5055994;28;47963;-78
2021/07/15 12:09:01;;;;;;;15.38;6.38;;;;;;;;;;5054326;28;35565;-78
2021/07/15 12:11:27;;;;;;;16.98;6.13;;;;;;;;;;5064000;28;47482;-78
2021/07/15 12:13:54;;;;;;;15.02;6.10;;;;;;;;;;5059643;28;39854;-79
2021/07/15 12:16:21;;;;;;;13.15;5.75;;;;;;;;;;5077018;28;38857;-79
2021/07/15 12:18:47;;;;;;;14.40;6.10;;;;;;;;;;5066425;28;37437;-80
2021/07/15 12:21:14;;;;;;;12.00;5.57;;;;;;;;;;5055092;28;37569;-78
2021/07/15 12:23:41;;;;;;;11.07;5.53;;;;;;;;;;5059195;28;37574;-78
2021/07/15 12:26:10;;;;;;;12.70;6.45;;;;;;;;;;5056171;28;35710;-78
2021/07/15 12:28:36;;;;;;;13.35;5.82;;;;;;;;;;5063975;28;38304;-79
2021/07/15 12:31:07;;;;;;;9.68;5.90;;;;;;;;;;5063560;28;37524;-79
2021/07/15 12:33:35;;;;;;;11.95;5.90;;;;;;;;;;5058770;28;39276;-79
2021/07/15 12:36:08;;;;;;;12.63;5.80;;;;;;;;;;5063314;28;38868;-78
2021/07/15 12:38:34;;;;;;;;;;;;;;;;;;5061153;28;37263;-78
2021/07/15 12:41:23;;;;;;;14.60;6.18;;;;;;;;;;5057206;28;38198;-78
2021/07/15 12:43:51;;;;;;;12.75;5.80;;;;;;;;;;5056672;28;47126;-79
2021/07/15 12:46:19;;;;;;;15.60;5.20;;;;;;;;;;5059634;28;39669;-78
2021/07/15 12:48:47;;;;;;;13.27;5.25;;;;;;;;;;5058909;28;38274;-78
2021/07/15 12:51:14;;;;;;;9.43;4.65;;;;;;;;;;5067776;28;39075;-79
2021/07/15 12:53:45;;;;;;;12.35;4.60;;;;;;;;;;5062675;28;38880;-78
2021/07/15 12:56:18;;;;;;;8.68;4.65;;;;;;;;;;5061840;28;39492;-78
2021/07/15 12:58:44;;;;;;;9.23;4.20;;;;;;;;;;5057935;28;36672;-79
2021/07/15 13:01:11;;;;;;;9.77;4.95;;;;;;;;;;5059855;28;39704;-79
2021/07/15 13:03:37;;;;;;;9.65;4.00;;;;;;;;;;5068234;28;37323;-79
2021/07/15 13:06:03;;;;;;;9.68;4.60;;;;;;;;;;5061539;28;38287;-78
2021/07/15 13:08:41;;;;;;;9.13;4.60;;;;;;;;;;5060467;28;37048;-79
2021/07/15 13:16:39;;;;;;;10.30;4.82;;;;;;;;;;5066009;28;49810;-80
2021/07/15 13:19:12;;;;;;;14.00;4.65;;;;;;;;;;5060548;28;37171;-79
2021/07/15 13:21:39;;;;;;;11.48;5.57;;;;;;;;;;5067121;28;39478;-80
2021/07/15 13:24:09;;;;;;;9.43;4.10;;;;;;;;;;5065003;28;39711;-79
2021/07/15 13:27:05;;;;;;;10.27;4.70;;;;;;;;;;5059049;28;38495;-79
2021/07/15 13:29:36;;;;;;;10.93;4.60;;;;;;;;;;5050165;28;48177;-79
2021/07/15 13:32:28;;;;;;;9.35;4.38;;;;;;;;;;5060355;28;39267;-79
2021/07/15 13:34:56;;;;;;;8.93;4.03;;;;;;;;;;5057339;28;39132;-79
2021/07/15 13:37:25;;;;;;;10.63;4.25;;;;;;;;;;5059828;28;38064;-79
2021/07/15 13:39:52;;;;;;;9.30;4.05;;;;;;;;;;5058545;28;37303;-79
2021/07/15 13:42:20;;;;;;;8.23;3.80;;;;;;;;;;5062664;28;39175;-79
2021/07/15 13:44:57;;;;;;;8.52;3.90;;;;;;;;;;5067550;28;38329;-80
2021/07/15 13:47:26;;;;;;;6.90;4.40;;;;;;;;;;5071395;28;38784;-80
2021/07/15 13:49:53;;;;;;;8.00;3.92;;;;;;;;;;5070371;28;35699;-79
2021/07/15 13:52:22;;;;;;;13.57;4.47;;;;;;;;;;5079717;28;39299;-80
2021/07/15 13:54:49;;;;;;;9.68;3.88;;;;;;;;;;5071484;28;39229;-80
2021/07/15 13:57:16;;;;;;;7.68;3.80;;;;;;;;;;5070642;28;37803;-80
2021/07/15 13:59:45;;;;;;;9.23;3.30;;;;;;;;;;5081992;28;37605;-80
2021/07/15 14:02:14;;;;;;;10.23;3.67;;;;;;;;;;5080800;28;39972;-80
2021/07/15 14:04:45;;;;;;;10.35;4.15;;;;;;;;;;5079402;28;39086;-80
2021/07/15 14:07:15;;;;;;;7.90;4.23;;;;;;;;;;5077737;28;39082;-80
2021/07/15 14:09:43;;;;;;;12.52;4.10;;;;;;;;;;5083315;28;38348;-79
2021/07/15 14:12:11;;;;;;;7.28;3.78;;;;;;;;;;5074198;28;40977;-80
2021/07/15 14:14:38;;;;;;;8.48;4.53;;;;;;;;;;5079606;28;39034;-79
2021/07/15 14:17:05;;;;;;;8.75;4.38;;;;;;;;;;5077656;28;37325;-79
2021/07/15 14:19:32;;;;;;;13.30;4.25;;;;;;;;;;5083174;28;37815;-80
2021/07/15 14:21:59;;;;;;;10.57;4.60;;;;;;;;;;5083822;28;38684;-79
2021/07/15 14:24:27;;;;;;;13.85;4.53;;;;;;;;;;5077878;28;39701;-79
2021/07/15 14:26:55;;;;;;;11.82;3.78;;;;;;;;;;5074801;28;38850;-79
2021/07/15 14:29:21;;;;;;;10.75;4.22;;;;;;;;;;5071710;28;38082;-80
2021/07/15 14:31:48;;;;;;;8.20;4.07;;;;;;;;;;5080443;28;39618;-80
2021/07/15 14:34:14;;;;;;;12.27;4.47;;;;;;;;;;5075388;28;37407;-80
2021/07/15 14:36:43;;;;;;;12.73;4.43;;;;;;;;;;5073080;28;37156;-80
2021/07/15 14:39:10;;;;;;;9.68;4.32;;;;;;;;;;5078809;28;36910;-79
2021/07/15 14:41:37;;;;;;;11.63;4.53;;;;;;;;;;5071616;28;39710;-79
2021/07/15 14:44:03;;;;;;;11.73;4.57;;;;;;;;;;5083019;28;39199;-80
2021/07/15 14:46:30;;;;;;;8.98;4.15;;;;;;;;;;5076515;28;38373;-79
2021/07/15 14:48:58;;;;;;;9.48;4.65;;;;;;;;;;5064466;28;37361;-79
2021/07/15 14:51:26;;;;;;;11.70;4.28;;;;;;;;;;5078970;28;38042;-80
2021/07/15 14:53:53;;;;;;;8.20;3.92;;;;;;;;;;5085886;28;39107;-80
2021/07/15 14:56:19;;;;;;;8.40;4.13;;;;;;;;;;5073828;28;38640;-79
2021/07/15 14:58:45;;;;;;;10.95;3.63;;;;;;;;;;5072266;28;37406;-79
2021/07/15 15:01:12;;;;;;;10.68;4.07;;;;;;;;;;5071641;28;39415;-79
2021/07/15 15:03:38;;;;;;;11.32;4.00;;;;;;;;;;5075210;28;41359;-79
2021/07/15 15:06:07;;;;;;;8.30;3.78;;;;;;;;;;5079299;28;37042;-79
2021/07/15 15:08:34;;;;;;;6.53;3.53;;;;;;;;;;5076748;28;37546;-79
2021/07/15 15:11:00;;;;;;;16.80;4.22;;;;;;;;;;5070989;28;39670;-77
2021/07/15 15:13:29;;;;;;;11.23;3.75;;;;;;;;;;5082561;28;37688;-77
2021/07/15 15:15:56;;;;;;;7.93;3.70;;;;;;;;;;5067251;28;37430;-78
2021/07/15 15:18:22;;;;;;;9.43;3.50;;;;;;;;;;5073526;28;37605;-78
2021/07/15 15:20:49;;;;;;;12.07;4.00;;;;;;;;;;5074165;28;38184;-79
2021/07/15 15:23:16;;;;;;;10.13;3.88;;;;;;;;;;5073196;28;37738;-78
2021/07/15 15:25:44;;;;;;;9.23;3.72;;;;;;;;;;5074023;28;37287;-78
2021/07/15 15:28:10;;;;;;;10.05;4.15;;;;;;;;;;5071682;28;36600;-78
2021/07/15 15:30:37;;;;;;;9.23;3.97;;;;;;;;;;5069538;28;39085;-77
2021/07/15 15:33:05;;;;;;;8.23;3.50;;;;;;;;;;5070843;28;39118;-78
2021/07/15 15:35:31;;;;;;;8.45;3.70;;;;;;;;;;5073966;28;38555;-77
2021/07/15 15:37:58;;;;;;;11.57;3.97;;;;;;;;;;5071823;28;37468;-78
2021/07/15 15:40:24;;;;;;;11.20;4.47;;;;;;;;;;5061897;28;39622;-78
2021/07/15 15:42:51;;;;;;;8.90;3.90;;;;;;;;;;5067331;28;39343;-78
2021/07/15 15:45:19;;;;;;;8.40;4.40;;;;;;;;;;5068224;28;39425;-78
2021/07/15 15:47:51;;;;;;;9.68;3.90;;;;;;;;;;5066955;28;35540;-78
2021/07/15 15:50:17;;;;;;;11.70;3.78;;;;;;;;;;5064176;28;39324;-78
2021/07/15 15:52:43;;;;;;;11.73;3.80;;;;;;;;;;5068747;28;38482;-78
2021/07/15 15:55:11;;;;;;;14.25;4.53;;;;;;;;;;5070294;28;37429;-79
2021/07/15 15:57:54;;;;;;;11.07;4.10;;;;;;;;;;5082554;28;35759;-79
2021/07/15 16:00:26;;;;;;;8.77;4.07;;;;;;;;;;5088150;28;38694;-81
2021/07/15 16:05:29;;;;;;;12.18;3.92;;;;;;;;;;5636397;22;20243;-80
2021/07/15 16:14:04;;;;;;;12.77;4.70;;;;;;;;;;5638869;22;20049;-80
2021/07/15 16:16:31;;;;;;;13.30;5.22;;;;;;;;;;5780092;22;48557;-79
2021/07/15 16:21:34;;;;;;;11.82;4.93;;;;;;;;;;5713958;22;20043;-80
2021/07/15 16:24:22;;;;;;;12.13;4.85;;;;;;;;;;5083238;27;38506;-81
2021/07/15 16:26:53;;;;;;;16.30;5.85;;;;;;;;;;5051551;28;48157;-81
2021/07/15 16:29:23;;;;;;;14.63;4.97;;;;;;;;;;5065425;28;38327;-80
2021/07/15 16:37:55;;;;;;;16.95;5.50;;;;;;;;;;5513794;22;19919;-80
2021/07/15 16:40:25;;;;;;;12.98;5.05;;;;;;;;;;5084799;28;36047;-79
2021/07/15 16:49:05;;;;;;;15.48;4.47;;;;;;;;;;5170905;22;50506;-79
2021/07/15 16:54:30;;;;;;;17.02;5.45;;;;;;;;;;5072734;28;20048;-81
2021/07/15 16:57:06;;;;;;;14.48;4.95;;;;;;;;;;5068090;28;37715;-78
2021/07/15 16:59:33;;;;;;;12.68;4.78;;;;;;;;;;5063107;28;49725;-78
2021/07/15 17:02:15;;;;;;;11.52;4.68;;;;;;;;;;5070089;28;38014;-79
2021/07/15 17:04:47;;;;;;;14.13;4.70;;;;;;;;;;5038309;28;50320;-80
2021/07/15 17:22:57;;;;;;;11.30;4.72;;;;;;;;;;5471291;22;20036;-79
2021/07/15 17:25:31;;;;;;;9.55;3.97;;;;;;;;;;5097607;28;39581;-80
2021/07/15 17:28:01;;;;;;;13.38;5.35;;;;;;;;;;5082767;28;40319;-79
2021/07/15 18:19:19;;;;;;;12.88;5.15;;;;;;;;;;5992188;22;20700;-81
2021/07/15 18:40:00;;;;;;;13.27;4.97;;;;;;;;;;5603585;22;20041;-81
2021/07/15 18:51:06;;;;;;;11.88;5.05;;;;;;;;;;5760899;22;20042;-81
2021/07/15 19:02:28;;;;;;;9.75;4.38;;;;;;;;;;6218449;22;20020;31
2021/07/15 19:58:59;;;;;;;15.13;6.20;;;;;;;;;;5493679;22;20060;-81
2021/07/15 20:01:26;;;;;;;11.85;4.93;;;;;;;;;;5548786;22;38818;-80
2021/07/15 20:04:16;;;;;;;13.73;5.05;;;;;;;;;;5070924;28;41325;-80
2021/07/15 20:12:04;;;;;;;8.07;4.85;;;;;;;;;;6038428;22;20080;-80
2021/07/15 20:14:37;;;;;;;7.80;5.22;;;;;;;;;;5188710;22;48697;-80
2021/07/15 20:27:58;;;;;;;10.55;5.30;;;;;;;;;;5644658;22;20036;-83
2021/07/15 20:45:58;;;;;;;16.30;5.75;;;;;;;;;;5084389;27;20103;-80
2021/07/15 20:48:25;;;;;;;13.10;5.40;;;;;;;;;;5577180;22;37377;-81
2021/07/15 20:50:55;;;;;;;12.52;4.95;;;;;;;;;;5268846;22;38357;-81
2021/07/15 20:53:22;;;;;;;11.25;4.65;;;;;;;;;;5074655;28;37547;-80
2021/07/15 20:55:48;;;;;;;15.05;5.45;;;;;;;;;;5083928;28;37950;-81
2021/07/15 21:00:51;;;;;;;11.15;4.68;;;;;;;;;;5728104;22;20041;-80
2021/07/15 21:03:18;;;;;;;16.25;5.30;;;;;;;;;;5076642;28;37035;-79
2021/07/15 21:06:20;;;;;;;15.30;5.65;;;;;;;;;;5093226;28;38639;-80
2021/07/15 21:08:47;;;;;;;8.77;4.40;;;;;;;;;;5072636;28;48903;-78
2021/07/15 21:11:14;;;;;;;8.77;4.30;;;;;;;;;;5057024;28;38894;-80